createdAt,value
2019-04-26T00:02:18.538Z,48.95
2019-04-26T00:04:50.610Z,49.11
2019-04-26T00:07:24.197Z,49.30
2019-04-26T00:09:58.798Z,49.59
2019-04-26T00:12:42.322Z,49.68
2019-04-26T00:15:32.162Z,49.83
2019-04-26T00:18:04.801Z,50.37
2019-04-26T00:20:36.811Z,50.98
2019-04-26T00:23:10.624Z,50.93
2019-04-26T00:25:42.841Z,50.94
2019-04-26T00:28:14.806Z,51.29
2019-04-26T00:30:47.003Z,51.24
2019-04-26T00:33:19.408Z,51.57
2019-04-26T00:35:51.550Z,51.85
2019-04-26T00:38:23.563Z,52.12
2019-04-26T00:40:56.980Z,52.26
2019-04-26T00:43:31.292Z,52.41
2019-04-26T00:46:05.386Z,52.39
2019-04-26T00:48:39.727Z,52.60
2019-04-26T00:51:12.796Z,52.57
2019-04-26T00:53:47.378Z,52.73
2019-04-26T00:56:20.212Z,53.06
2019-04-26T00:58:52.540Z,53.03
2019-04-26T01:01:26.489Z,53.04
2019-04-26T01:03:58.610Z,52.93
2019-04-26T01:06:32.298Z,53.01
2019-04-26T01:09:05.346Z,52.76
2019-04-26T01:11:37.389Z,52.74
2019-04-26T01:14:10.050Z,52.50
2019-04-26T01:16:42.164Z,52.31
2019-04-26T01:19:15.956Z,52.44
2019-04-26T01:21:54.687Z,52.27
2019-04-26T01:24:28.136Z,52.31
2019-04-26T01:27:02.969Z,52.45
2019-04-26T01:29:37.542Z,52.52
2019-04-26T01:32:13.170Z,52.73
2019-04-26T01:34:47.873Z,52.77
2019-04-26T01:37:20.667Z,52.73
2019-04-26T01:39:58.271Z,52.77
2019-04-26T01:43:07.711Z,52.75
2019-04-26T01:46:01.415Z,52.68
2019-04-26T01:48:47.106Z,52.76
2019-04-26T01:51:37.122Z,52.81
2019-04-26T01:54:10.532Z,52.85
2019-04-26T01:56:42.596Z,52.80
2019-04-26T01:59:17.544Z,52.51
2019-04-26T02:02:07.305Z,52.27
2019-04-26T02:04:42.778Z,52.34
2019-04-26T02:07:16.919Z,52.47
2019-04-26T02:09:48.897Z,52.54
2019-04-26T02:12:22.444Z,52.52
2019-04-26T02:14:55.093Z,52.61
2019-04-26T02:17:27.275Z,52.59
2019-04-26T02:20:00.658Z,52.57
2019-04-26T02:23:09.040Z,52.82
2019-04-26T02:25:41.350Z,53.15
2019-04-26T02:28:13.306Z,53.39
2019-04-26T02:30:45.511Z,53.50
2019-04-26T02:33:17.838Z,53.57
2019-04-26T02:35:49.821Z,53.67
2019-04-26T02:38:22.081Z,53.31
2019-04-26T02:40:55.007Z,53.03
2019-04-26T02:43:28.612Z,52.90
2019-04-26T02:46:22.519Z,52.73
2019-04-26T02:49:21.818Z,52.69
2019-04-26T02:52:37.155Z,52.59
2019-04-26T02:55:27.903Z,52.61
2019-04-26T02:58:01.042Z,52.37
2019-04-26T03:00:35.160Z,52.52
2019-04-26T03:03:09.458Z,52.56
2019-04-26T03:05:44.046Z,52.54
2019-04-26T03:08:19.018Z,52.85
2019-04-26T03:10:59.937Z,53.22
2019-04-26T03:13:56.831Z,53.13
2019-04-26T03:16:44.313Z,53.43
2019-04-26T03:19:40.910Z,53.44
2019-04-26T03:22:44.414Z,53.45
2019-04-26T03:25:28.523Z,53.27
2019-04-26T03:28:43.758Z,52.87
2019-04-26T03:31:52.335Z,52.85
2019-04-26T03:34:38.840Z,52.69
2019-04-26T03:38:05.403Z,52.69
2019-04-26T03:40:57.644Z,52.64
2019-04-26T03:44:04.868Z,52.42
2019-04-26T03:47:03.071Z,52.25
2019-04-26T03:50:18.340Z,52.26
2019-04-26T03:53:13.983Z,51.80
2019-04-26T03:56:48.393Z,51.23
2019-04-26T03:59:55.865Z,50.55
2019-04-26T04:03:10.180Z,50.32
2019-04-26T04:05:48.688Z,50.00
2019-04-26T04:08:30.715Z,49.73
2019-04-26T04:11:09.257Z,49.50
2019-04-26T04:14:00.028Z,49.35
2019-04-26T04:17:17.818Z,49.03
2019-04-26T04:20:56.431Z,48.64
2019-04-26T04:24:16.277Z,48.00
2019-04-26T04:27:23.281Z,47.95
2019-04-26T04:30:27.807Z,47.07
2019-04-26T04:33:29.557Z,46.31
2019-04-26T04:36:19.236Z,45.94
2019-04-26T04:39:21.867Z,44.27
2019-04-26T04:42:45.742Z,41.82
2019-04-26T04:46:05.075Z,40.96
2019-04-26T04:49:32.168Z,42.82
2019-04-26T04:52:53.762Z,44.13
2019-04-26T04:55:50.244Z,45.05
2019-04-26T04:58:34.224Z,45.54
2019-04-26T05:02:29.178Z,45.37
2019-04-26T05:06:07.749Z,44.61
2019-04-26T05:09:07.708Z,43.62
2019-04-26T05:12:19.430Z,41.52
2019-04-26T05:15:41.801Z,38.38
2019-04-26T05:19:27.533Z,34.38
2019-04-26T05:22:40.844Z,32.01
2019-04-26T05:26:37.078Z,28.59
2019-04-26T05:30:04.233Z,27.79
2019-04-26T05:33:25.223Z,25.80
2019-04-26T05:36:59.017Z,21.96
2019-04-26T05:40:47.053Z,19.76
2019-04-26T05:44:15.768Z,20.68
2019-04-26T05:47:40.464Z,20.26
2019-04-26T05:51:31.126Z,17.60
2019-04-26T05:55:11.223Z,16.17
2019-04-26T05:58:30.200Z,16.12
2019-04-26T06:02:08.676Z,16.60
2019-04-26T06:05:16.016Z,17.47
2019-04-26T06:08:43.284Z,18.32
2019-04-26T06:11:29.071Z,17.05
2019-04-26T06:14:36.940Z,14.33
2019-04-26T06:18:24.885Z,13.37
2019-04-26T06:21:34.986Z,13.78
2019-04-26T06:24:32.328Z,14.02
2019-04-26T06:27:49.905Z,12.86
2019-04-26T06:30:45.025Z,10.76
2019-04-26T06:33:45.143Z,9.00
2019-04-26T06:36:25.034Z,7.51
2019-04-26T06:39:37.434Z,6.79
2019-04-26T06:43:44.642Z,6.17
2019-04-26T06:46:56.298Z,5.30
2019-04-26T06:50:10.710Z,4.76
2019-04-26T06:53:01.571Z,4.27
2019-04-26T06:55:49.314Z,4.08
2019-04-26T06:59:08.411Z,3.40
2019-04-26T07:02:08.608Z,2.59
2019-04-26T07:05:15.389Z,3.04
2019-04-26T07:08:57.284Z,3.38
2019-04-26T07:12:34.113Z,3.70
2019-04-26T07:15:37.654Z,4.54
2019-04-26T07:19:13.344Z,4.43
2019-04-26T07:22:50.987Z,4.79
2019-04-26T07:26:16.068Z,4.26
2019-04-26T07:29:30.056Z,5.24
2019-04-26T07:33:18.572Z,4.14
2019-04-26T07:36:29.813Z,2.67
2019-04-26T07:40:17.835Z,2.34
2019-04-26T07:43:19.168Z,1.35
2019-04-26T07:46:37.699Z,0.82
2019-04-26T07:50:07.587Z,0.56
2019-04-26T07:53:52.296Z,0.32
2019-04-26T07:57:04.609Z,0.00
2019-04-26T08:00:20.652Z,0.00
2019-04-26T08:03:22.100Z,0.00
2019-04-26T08:06:05.798Z,0.00
2019-04-26T08:08:52.305Z,0.00
2019-04-26T08:11:41.308Z,0.00
2019-04-26T08:14:40.906Z,0.00
2019-04-26T08:17:30.966Z,0.00
2019-04-26T08:20:43.076Z,0.00
2019-04-26T08:23:42.273Z,0.00
2019-04-26T08:26:15.508Z,0.00
2019-04-26T08:28:51.233Z,0.00
2019-04-26T08:31:27.552Z,0.00
2019-04-26T08:34:06.068Z,0.00
2019-04-26T08:36:48.110Z,0.00
2019-04-26T08:39:32.510Z,0.00
2019-04-26T08:42:03.368Z,0.00
2019-04-26T08:45:08.870Z,0.00
2019-04-26T08:47:57.289Z,0.00
2019-04-26T08:50:38.370Z,0.00
2019-04-26T08:53:11.649Z,0.00
2019-04-26T08:55:45.896Z,0.00
2019-04-26T08:58:21.020Z,0.00
2019-04-26T09:01:06.591Z,0.00
2019-04-26T09:03:57.622Z,0.00
2019-04-26T09:06:57.654Z,0.00
2019-04-26T09:09:34.640Z,0.00
2019-04-26T09:12:22.533Z,0.00
2019-04-26T09:14:52.435Z,0.00
2019-04-26T09:17:27.673Z,0.00
2019-04-26T09:19:58.350Z,0.00
2019-04-26T09:22:44.886Z,0.00
2019-04-26T09:25:30.257Z,0.00
2019-04-26T09:28:07.621Z,0.00
2019-04-26T09:30:58.423Z,0.00
2019-04-26T09:33:39.455Z,0.00
2019-04-26T09:36:11.651Z,0.00
2019-04-26T09:38:43.635Z,0.00
2019-04-26T09:41:15.637Z,0.00
2019-04-26T09:43:54.910Z,0.00
2019-04-26T09:46:44.431Z,0.00
2019-04-26T09:49:32.693Z,0.00
2019-04-26T09:52:06.469Z,0.00
2019-04-26T09:54:38.448Z,0.00
2019-04-26T09:57:10.423Z,0.00
2019-04-26T09:59:42.415Z,0.00
2019-04-26T10:02:14.619Z,0.00
2019-04-26T10:04:46.579Z,0.00
2019-04-26T10:07:18.580Z,0.00
2019-04-26T10:09:51.733Z,0.00
2019-04-26T10:12:33.538Z,0.00
2019-04-26T10:15:22.542Z,0.00
2019-04-26T10:17:53.761Z,0.00
2019-04-26T10:20:25.900Z,0.00
2019-04-26T10:22:57.860Z,0.00
2019-04-26T10:25:29.830Z,0.00
2019-04-26T10:28:01.848Z,0.00
2019-04-26T10:30:33.807Z,0.00
2019-04-26T10:33:05.814Z,0.00
2019-04-26T10:35:37.788Z,0.00
2019-04-26T10:38:10.168Z,0.00
2019-04-26T10:40:42.258Z,0.00
2019-04-26T10:43:14.295Z,0.00
2019-04-26T10:45:53.523Z,0.00
2019-04-26T10:48:23.074Z,0.00
2019-04-26T10:50:54.358Z,0.00
2019-04-26T10:53:50.385Z,0.00
2019-04-26T10:56:46.880Z,0.00
2019-04-26T10:59:39.903Z,0.00
2019-04-26T11:02:15.799Z,0.00
2019-04-26T11:04:47.888Z,0.00
2019-04-26T11:07:20.242Z,0.00
2019-04-26T11:09:52.240Z,0.00
2019-04-26T11:12:24.208Z,0.00
2019-04-26T11:14:56.911Z,0.00
2019-04-26T11:17:29.285Z,0.00
2019-04-26T11:20:01.717Z,0.13
2019-04-26T11:22:37.507Z,0.79
2019-04-26T11:25:07.628Z,1.69
2019-04-26T11:27:40.256Z,2.13
2019-04-26T11:30:20.582Z,2.40
2019-04-26T11:32:47.728Z,2.95
2019-04-26T11:35:20.216Z,4.41
2019-04-26T11:37:55.298Z,5.79
2019-04-26T11:40:26.083Z,6.60
2019-04-26T11:42:58.369Z,7.51
2019-04-26T11:45:30.869Z,8.42
2019-04-26T11:48:03.351Z,9.73
2019-04-26T11:50:35.616Z,10.50
2019-04-26T11:53:10.250Z,11.20
2019-04-26T11:55:41.381Z,11.63
2019-04-26T11:58:13.373Z,12.07
2019-04-26T12:00:50.489Z,12.47
2019-04-26T12:03:24.945Z,13.00
2019-04-26T12:06:22.641Z,13.56
2019-04-26T12:09:01.484Z,13.46
2019-04-26T12:11:35.280Z,13.53
2019-04-26T12:14:19.378Z,13.63
2019-04-26T12:16:48.082Z,13.55
2019-04-26T12:19:18.253Z,13.45
2019-04-26T12:21:48.710Z,13.55
2019-04-26T12:24:20.752Z,13.60
2019-04-26T12:26:56.026Z,13.63
2019-04-26T12:29:26.432Z,13.81
2019-04-26T12:31:58.800Z,13.99
2019-04-26T12:34:31.127Z,14.07
2019-04-26T12:37:03.263Z,14.28
2019-04-26T12:39:36.625Z,14.54
2019-04-26T12:42:12.236Z,14.55
2019-04-26T12:45:12.263Z,14.55
2019-04-26T12:47:51.630Z,14.54
2019-04-26T12:50:23.601Z,14.68
2019-04-26T12:52:56.073Z,14.71
2019-04-26T12:55:29.317Z,14.70
2019-04-26T12:58:01.481Z,14.41
2019-04-26T13:00:37.608Z,14.58
2019-04-26T13:03:19.737Z,14.00
2019-04-26T13:05:41.382Z,14.25
2019-04-26T13:08:17.085Z,14.46
2019-04-26T13:11:07.997Z,15.03
2019-04-26T13:13:55.279Z,15.34
2019-04-26T13:16:35.375Z,15.73
2019-04-26T13:19:07.404Z,16.02
2019-04-26T13:21:40.083Z,15.47
2019-04-26T13:24:12.279Z,15.73
2019-04-26T13:26:44.403Z,15.43
2019-04-26T13:29:16.401Z,15.38
2019-04-26T13:31:48.462Z,15.22
2019-04-26T13:34:20.825Z,15.48
2019-04-26T13:36:52.803Z,15.94
2019-04-26T13:39:25.787Z,15.90
2019-04-26T13:42:04.538Z,15.98
2019-04-26T13:44:49.178Z,16.33
2019-04-26T13:47:40.013Z,16.83
2019-04-26T13:50:26.658Z,17.37
2019-04-26T13:52:59.470Z,17.50
2019-04-26T13:55:33.769Z,17.75
2019-04-26T13:58:05.503Z,18.07
2019-04-26T14:00:39.791Z,18.14
2019-04-26T14:03:11.711Z,18.08
2019-04-26T14:05:43.705Z,17.88
2019-04-26T14:08:17.651Z,18.08
2019-04-26T14:10:51.359Z,18.29
2019-04-26T14:13:25.046Z,18.19
2019-04-26T14:15:57.243Z,18.14
2019-04-26T14:18:29.289Z,18.28
2019-04-26T14:21:01.876Z,18.29
2019-04-26T14:24:01.860Z,18.25
2019-04-26T14:26:39.983Z,18.15
2019-04-26T14:29:11.311Z,18.18
2019-04-26T14:31:43.398Z,18.06
2019-04-26T14:34:15.421Z,18.11
2019-04-26T14:36:47.496Z,18.35
2019-04-26T14:39:21.082Z,18.42
2019-04-26T14:41:57.125Z,18.44
2019-04-26T14:44:27.137Z,18.45
2019-04-26T14:47:13.175Z,18.46
2019-04-26T14:49:39.196Z,18.55
2019-04-26T14:52:08.986Z,18.56
2019-04-26T14:54:45.885Z,18.74
2019-04-26T14:57:22.515Z,18.66
2019-04-26T14:59:56.720Z,18.79
2019-04-26T15:03:05.463Z,19.01
2019-04-26T15:05:59.080Z,19.07
2019-04-26T15:08:32.589Z,18.94
2019-04-26T15:11:05.150Z,18.87
2019-04-26T15:13:40.344Z,18.72
2019-04-26T15:16:13.693Z,18.76
2019-04-26T15:18:45.110Z,18.54
2019-04-26T15:21:17.145Z,18.58
2019-04-26T15:23:49.179Z,18.54
2019-04-26T15:26:24.236Z,18.78
2019-04-26T15:28:54.949Z,19.00
2019-04-26T15:31:26.939Z,19.15
2019-04-26T15:33:58.946Z,19.36
2019-04-26T15:36:31.275Z,19.62
2019-04-26T15:39:05.089Z,19.87
2019-04-26T15:41:54.346Z,20.21
2019-04-26T15:44:48.139Z,20.42
2019-04-26T15:47:34.343Z,20.74
2019-04-26T15:50:23.209Z,20.88
2019-04-26T15:52:55.401Z,21.17
2019-04-26T15:55:27.387Z,21.29
2019-04-26T15:58:02.692Z,21.31
2019-04-26T16:00:35.439Z,21.49
2019-04-26T16:03:07.487Z,21.41
2019-04-26T16:05:40.040Z,21.52
2019-04-26T16:08:13.044Z,21.58
2019-04-26T16:10:45.168Z,21.61
2019-04-26T16:13:20.926Z,21.57
2019-04-26T16:15:51.381Z,21.55
2019-04-26T16:18:23.376Z,21.73
2019-04-26T16:20:55.407Z,21.79
2019-04-26T16:23:38.377Z,21.79
2019-04-26T16:26:02.636Z,21.92
2019-04-26T16:28:53.597Z,21.90
2019-04-26T16:31:35.469Z,21.91
2019-04-26T16:34:11.666Z,22.02
2019-04-26T16:36:45.234Z,22.25
2019-04-26T16:39:19.703Z,22.45
2019-04-26T16:41:52.375Z,22.80
2019-04-26T16:44:29.857Z,22.91
2019-04-26T16:47:01.734Z,23.11
2019-04-26T16:49:35.062Z,23.31
2019-04-26T16:52:07.255Z,23.66
2019-04-26T16:54:40.608Z,23.98
2019-04-26T16:57:13.981Z,24.13
2019-04-26T16:59:49.179Z,24.54
2019-04-26T17:02:25.555Z,24.79
2019-04-26T17:04:54.084Z,25.26
2019-04-26T17:07:27.455Z,25.48
2019-04-26T17:10:00.329Z,25.76
2019-04-26T17:12:33.159Z,26.36
2019-04-26T17:15:06.018Z,26.68
2019-04-26T17:17:41.263Z,27.00
2019-04-26T17:20:11.999Z,27.55
2019-04-26T17:22:57.003Z,28.05
2019-04-26T17:25:49.493Z,28.15
2019-04-26T17:28:23.028Z,28.54
2019-04-26T17:30:55.473Z,29.03
2019-04-26T17:33:28.209Z,29.43
2019-04-26T17:36:01.234Z,29.60
2019-04-26T17:38:35.179Z,29.71
2019-04-26T17:41:10.930Z,30.06
2019-04-26T17:43:46.950Z,30.37
2019-04-26T17:46:17.936Z,30.34
2019-04-26T17:48:49.410Z,30.64
2019-04-26T17:51:23.226Z,31.14
2019-04-26T17:54:18.925Z,31.64
2019-04-26T17:56:31.462Z,32.03
2019-04-26T17:59:08.962Z,32.16
2019-04-26T18:01:45.204Z,32.12
2019-04-26T18:04:11.271Z,32.47
2019-04-26T18:06:45.381Z,32.67
2019-04-26T18:09:38.247Z,33.08
2019-04-26T18:11:51.234Z,33.30
2019-04-26T18:14:29.650Z,33.64
2019-04-26T18:17:07.837Z,33.75
2019-04-26T18:19:53.475Z,33.91
2019-04-26T18:22:53.125Z,33.93
2019-04-26T18:25:25.350Z,34.12
2019-04-26T18:27:57.363Z,33.98
2019-04-26T18:30:30.101Z,33.95
2019-04-26T18:33:02.932Z,33.83
2019-04-26T18:35:35.092Z,33.75
2019-04-26T18:38:08.520Z,33.85
2019-04-26T18:40:58.919Z,33.70
2019-04-26T18:43:18.888Z,33.79
2019-04-26T18:45:50.074Z,33.64
2019-04-26T18:48:23.646Z,33.64
2019-04-26T18:50:56.015Z,33.61
2019-04-26T18:53:47.207Z,33.79
2019-04-26T18:56:19.393Z,33.91
2019-04-26T18:58:51.670Z,33.74
2019-04-26T19:01:23.828Z,33.99
2019-04-26T19:03:55.847Z,34.08
2019-04-26T19:06:31.855Z,33.93
2019-04-26T19:09:05.659Z,34.03
2019-04-26T19:11:35.722Z,33.93
2019-04-26T19:14:26.699Z,33.97
2019-04-26T19:17:22.055Z,34.11
2019-04-26T19:20:11.565Z,34.26
2019-04-26T19:22:52.008Z,34.35
2019-04-26T19:25:23.877Z,34.39
2019-04-26T19:27:58.699Z,34.38
2019-04-26T19:30:29.541Z,34.37
2019-04-26T19:33:02.063Z,34.49
2019-04-26T19:35:34.257Z,34.44
2019-04-26T19:38:07.512Z,34.62
2019-04-26T19:40:46.064Z,34.80
2019-04-26T19:43:27.713Z,34.98
2019-04-26T19:46:12.763Z,35.08
2019-04-26T19:49:09.825Z,35.31
2019-04-26T19:52:03.895Z,35.56
2019-04-26T19:54:42.722Z,36.07
2019-04-26T19:57:18.764Z,36.52
2019-04-26T19:59:52.597Z,36.71
2019-04-26T20:02:35.821Z,36.95
2019-04-26T20:05:02.350Z,37.20
2019-04-26T20:07:34.876Z,37.21
2019-04-26T20:10:07.056Z,37.50
2019-04-26T20:12:39.037Z,37.72
2019-04-26T20:15:25.348Z,37.93
2019-04-26T20:17:52.513Z,37.97
2019-04-26T20:20:23.233Z,38.04
2019-04-26T20:22:54.430Z,38.21
2019-04-26T20:25:26.407Z,38.32
2019-04-26T20:28:03.169Z,38.58
2019-04-26T20:31:07.683Z,38.60
2019-04-26T20:33:37.231Z,38.83
2019-04-26T20:36:09.235Z,39.11
2019-04-26T20:38:45.639Z,39.04
2019-04-26T20:41:15.164Z,39.36
2019-04-26T20:44:02.423Z,39.46
2019-04-26T20:46:24.883Z,39.64
2019-04-26T20:48:54.976Z,39.64
2019-04-26T20:51:27.012Z,39.81
2019-04-26T20:53:59.043Z,39.95
2019-04-26T20:56:31.743Z,40.21
2019-04-26T20:59:04.706Z,40.34
2019-04-26T21:01:36.673Z,40.50
2019-04-26T21:04:08.685Z,40.42
2019-04-26T21:06:41.124Z,40.67
2019-04-26T21:09:17.801Z,40.96
2019-04-26T21:11:51.507Z,40.92
2019-04-26T21:14:23.600Z,40.97
2019-04-26T21:16:55.591Z,41.37
2019-04-26T21:19:27.646Z,41.50
2019-04-26T21:22:00.164Z,41.63
2019-04-26T21:24:36.761Z,41.71
2019-04-26T21:27:25.877Z,41.80
2019-04-26T21:30:17.120Z,41.83
2019-04-26T21:33:16.905Z,41.99
2019-04-26T21:36:07.286Z,42.33
2019-04-26T21:38:47.445Z,42.27
2019-04-26T21:41:25.424Z,42.39
2019-04-26T21:43:57.410Z,42.42
2019-04-26T21:46:29.516Z,42.77
2019-04-26T21:49:01.560Z,42.80
2019-04-26T21:51:34.079Z,42.72
2019-04-26T21:54:06.367Z,42.94
2019-04-26T21:56:42.766Z,42.76
2019-04-26T21:59:13.818Z,42.65
2019-04-26T22:01:48.346Z,43.14
2019-04-26T22:04:20.241Z,43.28
2019-04-26T22:06:53.470Z,43.28
2019-04-26T22:09:47.767Z,43.49
2019-04-26T22:12:20.931Z,43.67
2019-04-26T22:15:01.057Z,43.67
2019-04-26T22:17:40.654Z,43.91
2019-04-26T22:20:29.933Z,43.92
2019-04-26T22:23:25.400Z,44.17
2019-04-26T22:26:00.199Z,44.21
2019-04-26T22:28:35.949Z,44.38
2019-04-26T22:31:08.505Z,44.45
2019-04-26T22:33:38.998Z,44.47
2019-04-26T22:36:13.033Z,44.54
2019-04-26T22:38:44.918Z,44.89
2019-04-26T22:41:16.838Z,44.97
2019-04-26T22:43:59.833Z,45.19
2019-04-26T22:46:49.743Z,45.23
2019-04-26T22:49:23.205Z,45.49
2019-04-26T22:51:55.251Z,45.63
2019-04-26T22:54:27.268Z,45.61
2019-04-26T22:56:59.231Z,45.80
2019-04-26T22:59:31.277Z,46.05
2019-04-26T23:02:04.310Z,46.30
2019-04-26T23:04:36.275Z,46.42
2019-04-26T23:07:09.533Z,46.74
2019-04-26T23:09:45.782Z,46.90
2019-04-26T23:12:53.975Z,47.00
2019-04-26T23:15:43.245Z,47.30
2019-04-26T23:18:34.246Z,47.28
2019-04-26T23:21:27.334Z,47.57
2019-04-26T23:23:59.337Z,47.87
2019-04-26T23:26:31.403Z,48.02
2019-04-26T23:29:03.810Z,47.92
2019-04-26T23:31:37.475Z,48.01
2019-04-26T23:34:09.798Z,48.26
2019-04-26T23:36:43.578Z,48.28
2019-04-26T23:39:15.606Z,48.39
2019-04-26T23:41:47.535Z,48.71
2019-04-26T23:44:19.980Z,48.74
2019-04-26T23:46:54.964Z,49.16
2019-04-26T23:49:25.649Z,49.46
2019-04-26T23:51:57.687Z,49.52
2019-04-26T23:54:32.265Z,49.58
2019-04-26T23:57:03.388Z,49.97
2019-04-26T23:59:35.334Z,50.27
